Abernant, United Kingdom
Current Conditions -  °F | °C
As of 3:50 PM on Tuesday 21 Oct 2014 (Local Time) from EGOP Reporting Station
Scattered Clouds Scattered Clouds  
Wind Chill: 54°   Ceiling: Unl
Heat Index: 54°   Visibility: 6mi
Dew Point: 41°   Wind: 38mph
Humidity: 62%   Direction: 310°NW
Pressure: 30"   Gusts: NA
Location:  51.82°N, 4.5°W
Report Text: EGOP 211450Z AUTO 31033KT 9999 // FEW043/// SCT050/// 12/05 Q1016
Loading
Personal Weather Stations






























Interactive Weather Map
Tropical Storm Tracking
New forecast layout! Learn more

10-Day Weather Forecast

Advertisements
Track Severe Weather on mobile